sensor_id;sensor_type;location;lat;lon;timestamp;P1;durP1;ratioP1;P2;durP2;ratioP2
46731;SDS011;32477;51.474;5.696;2023-04-23T00:00:58;150.48;;;50.88;;
46731;SDS011;32477;51.474;5.696;2023-04-23T00:03:26;153.18;;;50.40;;
46731;SDS011;32477;51.474;5.696;2023-04-23T00:05:57;150.70;;;48.42;;
46731;SDS011;32477;51.474;5.696;2023-04-23T00:08:25;151.38;;;50.25;;
46731;SDS011;32477;51.474;5.696;2023-04-23T00:10:55;160.48;;;49.15;;
46731;SDS011;32477;51.474;5.696;2023-04-23T00:13:21;152.77;;;48.97;;
46731;SDS011;32477;51.474;5.696;2023-04-23T00:15:47;163.98;;;49.20;;
46731;SDS011;32477;51.474;5.696;2023-04-23T00:18:13;163.05;;;51.15;;
46731;SDS011;32477;51.474;5.696;2023-04-23T00:20:40;150.82;;;48.75;;
46731;SDS011;32477;51.474;5.696;2023-04-23T00:23:06;140.60;;;46.22;;
46731;SDS011;32477;51.474;5.696;2023-04-23T00:25:32;161.00;;;49.55;;
46731;SDS011;32477;51.474;5.696;2023-04-23T00:27:58;143.50;;;46.25;;
46731;SDS011;32477;51.474;5.696;2023-04-23T00:30:24;155.02;;;48.22;;
46731;SDS011;32477;51.474;5.696;2023-04-23T00:32:49;140.27;;;49.30;;
46731;SDS011;32477;51.474;5.696;2023-04-23T00:35:15;131.70;;;44.92;;
46731;SDS011;32477;51.474;5.696;2023-04-23T00:37:42;129.50;;;45.67;;
46731;SDS011;32477;51.474;5.696;2023-04-23T00:40:08;129.07;;;46.05;;
46731;SDS011;32477;51.474;5.696;2023-04-23T00:42:35;133.40;;;45.80;;
46731;SDS011;32477;51.474;5.696;2023-04-23T00:45:02;130.23;;;46.75;;
46731;SDS011;32477;51.474;5.696;2023-04-23T00:47:30;120.20;;;42.05;;
46731;SDS011;32477;51.474;5.696;2023-04-23T00:49:58;141.23;;;46.10;;
46731;SDS011;32477;51.474;5.696;2023-04-23T00:52:24;139.73;;;44.97;;
46731;SDS011;32477;51.474;5.696;2023-04-23T00:54:50;124.43;;;42.08;;
46731;SDS011;32477;51.474;5.696;2023-04-23T00:57:15;111.95;;;42.08;;
46731;SDS011;32477;51.474;5.696;2023-04-23T00:59:42;119.75;;;40.78;;
46731;SDS011;32477;51.474;5.696;2023-04-23T01:02:11;116.28;;;42.85;;
46731;SDS011;32477;51.474;5.696;2023-04-23T01:04:37;117.97;;;41.83;;
46731;SDS011;32477;51.474;5.696;2023-04-23T01:07:04;117.28;;;41.15;;
46731;SDS011;32477;51.474;5.696;2023-04-23T01:09:31;111.30;;;41.45;;
46731;SDS011;32477;51.474;5.696;2023-04-23T01:11:57;113.97;;;41.25;;
46731;SDS011;32477;51.474;5.696;2023-04-23T01:14:23;102.97;;;40.22;;
46731;SDS011;32477;51.474;5.696;2023-04-23T01:16:50;103.95;;;39.92;;
46731;SDS011;32477;51.474;5.696;2023-04-23T01:19:16;118.18;;;42.28;;
46731;SDS011;32477;51.474;5.696;2023-04-23T01:21:42;101.22;;;38.38;;
46731;SDS011;32477;51.474;5.696;2023-04-23T01:24:09;95.78;;;38.13;;
46731;SDS011;32477;51.474;5.696;2023-04-23T01:26:38;91.93;;;38.83;;
46731;SDS011;32477;51.474;5.696;2023-04-23T01:29:05;93.00;;;37.10;;
46731;SDS011;32477;51.474;5.696;2023-04-23T01:31:31;93.57;;;37.50;;
46731;SDS011;32477;51.474;5.696;2023-04-23T01:33:57;99.30;;;37.45;;
46731;SDS011;32477;51.474;5.696;2023-04-23T01:36:25;101.18;;;39.55;;
46731;SDS011;32477;51.474;5.696;2023-04-23T01:38:51;95.57;;;38.58;;
46731;SDS011;32477;51.474;5.696;2023-04-23T01:41:17;87.07;;;34.80;;
46731;SDS011;32477;51.474;5.696;2023-04-23T01:43:44;93.50;;;39.08;;
46731;SDS011;32477;51.474;5.696;2023-04-23T01:46:10;84.70;;;36.00;;
46731;SDS011;32477;51.474;5.696;2023-04-23T01:48:38;87.03;;;37.85;;
46731;SDS011;32477;51.474;5.696;2023-04-23T01:51:04;93.68;;;38.25;;
46731;SDS011;32477;51.474;5.696;2023-04-23T01:53:30;85.32;;;37.67;;
46731;SDS011;32477;51.474;5.696;2023-04-23T01:55:57;84.90;;;35.03;;
46731;SDS011;32477;51.474;5.696;2023-04-23T01:58:24;91.72;;;37.15;;
46731;SDS011;32477;51.474;5.696;2023-04-23T02:00:50;83.25;;;35.80;;
46731;SDS011;32477;51.474;5.696;2023-04-23T02:03:16;82.45;;;36.15;;
46731;SDS011;32477;51.474;5.696;2023-04-23T02:05:42;84.22;;;35.58;;
46731;SDS011;32477;51.474;5.696;2023-04-23T02:08:08;77.55;;;35.45;;
46731;SDS011;32477;51.474;5.696;2023-04-23T02:10:34;89.57;;;35.42;;
46731;SDS011;32477;51.474;5.696;2023-04-23T02:13:00;69.97;;;34.78;;
46731;SDS011;32477;51.474;5.696;2023-04-23T02:15:26;81.65;;;34.83;;
46731;SDS011;32477;51.474;5.696;2023-04-23T02:17:52;79.60;;;35.63;;
46731;SDS011;32477;51.474;5.696;2023-04-23T02:20:18;73.20;;;35.67;;
46731;SDS011;32477;51.474;5.696;2023-04-23T02:22:46;77.35;;;34.08;;
46731;SDS011;32477;51.474;5.696;2023-04-23T02:25:12;70.32;;;33.05;;
46731;SDS011;32477;51.474;5.696;2023-04-23T02:27:42;72.70;;;33.50;;
46731;SDS011;32477;51.474;5.696;2023-04-23T02:30:08;73.50;;;34.45;;
46731;SDS011;32477;51.474;5.696;2023-04-23T02:32:35;77.22;;;34.45;;
46731;SDS011;32477;51.474;5.696;2023-04-23T02:35:02;75.47;;;33.47;;
46731;SDS011;32477;51.474;5.696;2023-04-23T02:37:31;73.07;;;34.83;;
46731;SDS011;32477;51.474;5.696;2023-04-23T02:39:57;77.78;;;33.70;;
46731;SDS011;32477;51.474;5.696;2023-04-23T02:42:22;75.15;;;33.70;;
46731;SDS011;32477;51.474;5.696;2023-04-23T02:44:48;68.68;;;32.88;;
46731;SDS011;32477;51.474;5.696;2023-04-23T02:47:14;68.28;;;32.83;;
46731;SDS011;32477;51.474;5.696;2023-04-23T02:49:39;71.68;;;32.33;;
46731;SDS011;32477;51.474;5.696;2023-04-23T02:52:05;72.00;;;30.08;;
46731;SDS011;32477;51.474;5.696;2023-04-23T02:54:31;72.40;;;32.10;;
46731;SDS011;32477;51.474;5.696;2023-04-23T02:56:57;61.58;;;30.98;;
46731;SDS011;32477;51.474;5.696;2023-04-23T02:59:22;67.20;;;33.05;;
46731;SDS011;32477;51.474;5.696;2023-04-23T03:01:48;59.95;;;28.42;;
46731;SDS011;32477;51.474;5.696;2023-04-23T03:04:15;64.80;;;29.88;;
46731;SDS011;32477;51.474;5.696;2023-04-23T03:06:42;65.63;;;30.90;;
46731;SDS011;32477;51.474;5.696;2023-04-23T03:09:08;62.95;;;30.63;;
46731;SDS011;32477;51.474;5.696;2023-04-23T03:11:33;61.22;;;29.65;;
46731;SDS011;32477;51.474;5.696;2023-04-23T03:13:59;59.88;;;28.83;;
46731;SDS011;32477;51.474;5.696;2023-04-23T03:16:26;61.00;;;30.42;;
46731;SDS011;32477;51.474;5.696;2023-04-23T03:18:52;64.55;;;29.83;;
46731;SDS011;32477;51.474;5.696;2023-04-23T03:21:18;70.28;;;30.10;;
46731;SDS011;32477;51.474;5.696;2023-04-23T03:23:43;60.90;;;31.60;;
46731;SDS011;32477;51.474;5.696;2023-04-23T03:26:09;61.20;;;30.23;;
46731;SDS011;32477;51.474;5.696;2023-04-23T03:28:35;64.88;;;29.63;;
46731;SDS011;32477;51.474;5.696;2023-04-23T03:31:00;61.55;;;30.33;;
46731;SDS011;32477;51.474;5.696;2023-04-23T03:33:26;66.32;;;30.40;;
46731;SDS011;32477;51.474;5.696;2023-04-23T03:35:52;62.35;;;30.08;;
46731;SDS011;32477;51.474;5.696;2023-04-23T03:38:17;61.30;;;28.38;;
46731;SDS011;32477;51.474;5.696;2023-04-23T03:40:43;56.80;;;29.58;;
46731;SDS011;32477;51.474;5.696;2023-04-23T03:43:09;63.05;;;29.83;;
46731;SDS011;32477;51.474;5.696;2023-04-23T03:45:35;65.68;;;31.05;;
46731;SDS011;32477;51.474;5.696;2023-04-23T03:48:00;60.25;;;30.48;;
46731;SDS011;32477;51.474;5.696;2023-04-23T03:50:26;58.15;;;28.77;;
46731;SDS011;32477;51.474;5.696;2023-04-23T03:52:52;62.13;;;29.60;;
46731;SDS011;32477;51.474;5.696;2023-04-23T03:55:17;55.00;;;27.50;;
46731;SDS011;32477;51.474;5.696;2023-04-23T03:57:44;53.55;;;28.80;;
46731;SDS011;32477;51.474;5.696;2023-04-23T04:00:10;53.17;;;28.45;;
46731;SDS011;32477;51.474;5.696;2023-04-23T04:02:40;58.35;;;27.05;;
46731;SDS011;32477;51.474;5.696;2023-04-23T04:05:05;50.65;;;26.67;;
46731;SDS011;32477;51.474;5.696;2023-04-23T04:07:31;56.80;;;28.33;;
46731;SDS011;32477;51.474;5.696;2023-04-23T04:09:58;45.08;;;26.13;;
46731;SDS011;32477;51.474;5.696;2023-04-23T04:12:26;49.42;;;25.38;;
46731;SDS011;32477;51.474;5.696;2023-04-23T04:14:53;45.38;;;24.27;;
46731;SDS011;32477;51.474;5.696;2023-04-23T04:17:18;45.20;;;25.10;;
46731;SDS011;32477;51.474;5.696;2023-04-23T04:19:44;45.15;;;25.55;;
46731;SDS011;32477;51.474;5.696;2023-04-23T04:22:10;47.58;;;25.35;;
46731;SDS011;32477;51.474;5.696;2023-04-23T04:24:36;45.33;;;23.77;;
46731;SDS011;32477;51.474;5.696;2023-04-23T04:27:02;43.85;;;24.40;;
46731;SDS011;32477;51.474;5.696;2023-04-23T04:29:28;44.28;;;24.00;;
46731;SDS011;32477;51.474;5.696;2023-04-23T04:31:55;40.33;;;23.20;;
46731;SDS011;32477;51.474;5.696;2023-04-23T04:34:21;43.50;;;24.25;;
46731;SDS011;32477;51.474;5.696;2023-04-23T04:36:47;43.45;;;23.23;;
46731;SDS011;32477;51.474;5.696;2023-04-23T04:39:13;41.92;;;22.55;;
46731;SDS011;32477;51.474;5.696;2023-04-23T04:41:39;38.38;;;21.55;;
46731;SDS011;32477;51.474;5.696;2023-04-23T04:44:05;38.30;;;21.77;;
46731;SDS011;32477;51.474;5.696;2023-04-23T04:46:34;42.15;;;23.10;;
46731;SDS011;32477;51.474;5.696;2023-04-23T04:49:07;38.08;;;21.33;;
46731;SDS011;32477;51.474;5.696;2023-04-23T04:51:38;41.33;;;22.17;;
46731;SDS011;32477;51.474;5.696;2023-04-23T04:54:04;43.30;;;22.35;;
46731;SDS011;32477;51.474;5.696;2023-04-23T04:56:32;37.70;;;22.13;;
46731;SDS011;32477;51.474;5.696;2023-04-23T04:58:58;41.75;;;22.58;;
46731;SDS011;32477;51.474;5.696;2023-04-23T05:01:25;45.08;;;22.83;;
46731;SDS011;32477;51.474;5.696;2023-04-23T05:03:52;44.15;;;22.30;;
46731;SDS011;32477;51.474;5.696;2023-04-23T05:06:19;39.03;;;22.40;;
46731;SDS011;32477;51.474;5.696;2023-04-23T05:08:45;37.72;;;22.05;;
46731;SDS011;32477;51.474;5.696;2023-04-23T05:11:15;36.58;;;21.20;;
46731;SDS011;32477;51.474;5.696;2023-04-23T05:13:45;40.25;;;22.50;;
46731;SDS011;32477;51.474;5.696;2023-04-23T05:16:11;37.55;;;21.75;;
46731;SDS011;32477;51.474;5.696;2023-04-23T05:18:37;38.10;;;22.67;;
46731;SDS011;32477;51.474;5.696;2023-04-23T05:21:04;37.45;;;22.10;;
46731;SDS011;32477;51.474;5.696;2023-04-23T05:23:30;43.20;;;21.67;;
46731;SDS011;32477;51.474;5.696;2023-04-23T05:25:56;35.95;;;21.27;;
46731;SDS011;32477;51.474;5.696;2023-04-23T05:28:22;39.53;;;22.60;;
46731;SDS011;32477;51.474;5.696;2023-04-23T05:30:49;38.30;;;23.52;;
46731;SDS011;32477;51.474;5.696;2023-04-23T05:33:15;37.67;;;21.83;;
46731;SDS011;32477;51.474;5.696;2023-04-23T05:35:41;35.65;;;21.80;;
46731;SDS011;32477;51.474;5.696;2023-04-23T05:38:07;35.22;;;21.30;;
46731;SDS011;32477;51.474;5.696;2023-04-23T05:40:33;35.45;;;21.48;;
46731;SDS011;32477;51.474;5.696;2023-04-23T05:42:59;36.33;;;21.45;;
46731;SDS011;32477;51.474;5.696;2023-04-23T05:45:25;39.95;;;20.08;;
46731;SDS011;32477;51.474;5.696;2023-04-23T05:47:51;31.48;;;19.38;;
46731;SDS011;32477;51.474;5.696;2023-04-23T05:50:17;38.25;;;19.92;;
46731;SDS011;32477;51.474;5.696;2023-04-23T05:52:43;33.92;;;19.40;;
46731;SDS011;32477;51.474;5.696;2023-04-23T05:55:09;29.52;;;19.45;;
46731;SDS011;32477;51.474;5.696;2023-04-23T05:57:36;30.70;;;17.73;;
46731;SDS011;32477;51.474;5.696;2023-04-23T06:00:03;28.40;;;16.15;;
46731;SDS011;32477;51.474;5.696;2023-04-23T06:02:30;25.30;;;14.82;;
46731;SDS011;32477;51.474;5.696;2023-04-23T06:04:58;24.77;;;15.30;;
46731;SDS011;32477;51.474;5.696;2023-04-23T06:07:23;22.65;;;13.98;;
46731;SDS011;32477;51.474;5.696;2023-04-23T06:09:49;21.08;;;13.68;;
46731;SDS011;32477;51.474;5.696;2023-04-23T06:12:15;24.45;;;14.52;;
46731;SDS011;32477;51.474;5.696;2023-04-23T06:14:40;26.50;;;13.70;;
46731;SDS011;32477;51.474;5.696;2023-04-23T06:17:06;22.60;;;13.43;;
46731;SDS011;32477;51.474;5.696;2023-04-23T06:19:32;21.83;;;11.90;;
46731;SDS011;32477;51.474;5.696;2023-04-23T06:21:57;16.67;;;10.52;;
46731;SDS011;32477;51.474;5.696;2023-04-23T06:24:23;16.92;;;10.55;;
46731;SDS011;32477;51.474;5.696;2023-04-23T06:26:49;17.92;;;10.93;;
46731;SDS011;32477;51.474;5.696;2023-04-23T06:29:15;15.68;;;10.95;;
46731;SDS011;32477;51.474;5.696;2023-04-23T06:31:41;15.82;;;9.95;;
46731;SDS011;32477;51.474;5.696;2023-04-23T06:34:06;12.77;;;9.23;;
46731;SDS011;32477;51.474;5.696;2023-04-23T06:36:32;16.60;;;9.68;;
46731;SDS011;32477;51.474;5.696;2023-04-23T06:38:58;16.20;;;9.65;;
46731;SDS011;32477;51.474;5.696;2023-04-23T06:41:23;14.43;;;9.38;;
46731;SDS011;32477;51.474;5.696;2023-04-23T06:43:50;17.80;;;9.20;;
46731;SDS011;32477;51.474;5.696;2023-04-23T06:46:15;10.65;;;8.20;;
46731;SDS011;32477;51.474;5.696;2023-04-23T06:48:41;19.40;;;8.93;;
46731;SDS011;32477;51.474;5.696;2023-04-23T06:51:07;13.95;;;8.38;;
46731;SDS011;32477;51.474;5.696;2023-04-23T06:53:32;14.20;;;7.82;;
46731;SDS011;32477;51.474;5.696;2023-04-23T06:55:58;15.57;;;8.10;;
46731;SDS011;32477;51.474;5.696;2023-04-23T06:58:24;14.50;;;7.88;;
46731;SDS011;32477;51.474;5.696;2023-04-23T07:00:55;15.13;;;7.57;;
46731;SDS011;32477;51.474;5.696;2023-04-23T07:03:24;14.02;;;7.07;;
46731;SDS011;32477;51.474;5.696;2023-04-23T07:05:52;13.13;;;6.82;;
46731;SDS011;32477;51.474;5.696;2023-04-23T07:08:20;14.55;;;6.55;;
46731;SDS011;32477;51.474;5.696;2023-04-23T07:10:46;11.73;;;6.40;;
46731;SDS011;32477;51.474;5.696;2023-04-23T07:13:12;14.45;;;6.43;;
46731;SDS011;32477;51.474;5.696;2023-04-23T07:15:38;13.52;;;5.75;;
46731;SDS011;32477;51.474;5.696;2023-04-23T07:18:05;8.93;;;5.68;;
46731;SDS011;32477;51.474;5.696;2023-04-23T07:20:31;12.77;;;5.80;;
46731;SDS011;32477;51.474;5.696;2023-04-23T07:22:57;8.55;;;5.45;;
46731;SDS011;32477;51.474;5.696;2023-04-23T07:25:23;9.98;;;5.30;;
46731;SDS011;32477;51.474;5.696;2023-04-23T07:27:50;11.43;;;5.20;;
46731;SDS011;32477;51.474;5.696;2023-04-23T07:30:19;13.52;;;5.03;;
46731;SDS011;32477;51.474;5.696;2023-04-23T07:32:45;9.75;;;4.75;;
46731;SDS011;32477;51.474;5.696;2023-04-23T07:35:11;8.27;;;4.53;;
46731;SDS011;32477;51.474;5.696;2023-04-23T07:37:37;7.93;;;3.92;;
46731;SDS011;32477;51.474;5.696;2023-04-23T07:40:03;8.02;;;4.07;;
46731;SDS011;32477;51.474;5.696;2023-04-23T07:42:30;7.80;;;4.30;;
46731;SDS011;32477;51.474;5.696;2023-04-23T07:44:56;11.90;;;4.25;;
46731;SDS011;32477;51.474;5.696;2023-04-23T07:47:21;10.40;;;3.78;;
46731;SDS011;32477;51.474;5.696;2023-04-23T07:49:47;10.40;;;4.38;;
46731;SDS011;32477;51.474;5.696;2023-04-23T07:52:13;7.75;;;3.60;;
46731;SDS011;32477;51.474;5.696;2023-04-23T07:54:39;8.85;;;3.35;;
46731;SDS011;32477;51.474;5.696;2023-04-23T07:57:05;11.68;;;4.07;;
46731;SDS011;32477;51.474;5.696;2023-04-23T07:59:30;9.93;;;3.80;;
46731;SDS011;32477;51.474;5.696;2023-04-23T08:01:56;7.55;;;3.10;;
46731;SDS011;32477;51.474;5.696;2023-04-23T08:04:22;8.10;;;2.95;;
46731;SDS011;32477;51.474;5.696;2023-04-23T08:06:47;9.02;;;2.95;;
46731;SDS011;32477;51.474;5.696;2023-04-23T08:09:13;9.25;;;3.30;;
46731;SDS011;32477;51.474;5.696;2023-04-23T08:11:39;9.20;;;3.05;;
46731;SDS011;32477;51.474;5.696;2023-04-23T08:14:05;6.95;;;3.00;;
46731;SDS011;32477;51.474;5.696;2023-04-23T08:16:31;9.95;;;3.15;;
46731;SDS011;32477;51.474;5.696;2023-04-23T08:18:56;9.27;;;2.70;;
46731;SDS011;32477;51.474;5.696;2023-04-23T08:21:22;7.22;;;3.20;;
46731;SDS011;32477;51.474;5.696;2023-04-23T08:23:50;9.05;;;3.70;;
46731;SDS011;32477;51.474;5.696;2023-04-23T08:26:15;14.55;;;2.63;;
46731;SDS011;32477;51.474;5.696;2023-04-23T08:28:41;9.10;;;3.13;;
46731;SDS011;32477;51.474;5.696;2023-04-23T08:31:07;6.45;;;2.70;;
46731;SDS011;32477;51.474;5.696;2023-04-23T08:33:33;10.02;;;2.50;;
46731;SDS011;32477;51.474;5.696;2023-04-23T08:35:58;11.32;;;2.83;;
46731;SDS011;32477;51.474;5.696;2023-04-23T08:38:24;7.25;;;2.25;;
46731;SDS011;32477;51.474;5.696;2023-04-23T08:40:50;10.65;;;2.65;;
46731;SDS011;32477;51.474;5.696;2023-04-23T08:43:20;15.38;;;3.50;;
46731;SDS011;32477;51.474;5.696;2023-04-23T08:45:56;11.65;;;3.25;;
46731;SDS011;32477;51.474;5.696;2023-04-23T08:48:28;6.25;;;2.42;;
46731;SDS011;32477;51.474;5.696;2023-04-23T08:50:54;6.88;;;2.65;;
46731;SDS011;32477;51.474;5.696;2023-04-23T08:53:22;7.68;;;2.50;;
46731;SDS011;32477;51.474;5.696;2023-04-23T08:55:52;6.55;;;2.45;;
46731;SDS011;32477;51.474;5.696;2023-04-23T08:58:20;8.80;;;2.67;;
46731;SDS011;32477;51.474;5.696;2023-04-23T09:00:47;11.98;;;3.38;;
46731;SDS011;32477;51.474;5.696;2023-04-23T09:03:14;6.22;;;2.22;;
46731;SDS011;32477;51.474;5.696;2023-04-23T09:05:41;7.28;;;2.30;;
46731;SDS011;32477;51.474;5.696;2023-04-23T09:08:07;9.25;;;2.35;;
46731;SDS011;32477;51.474;5.696;2023-04-23T09:10:35;8.57;;;2.45;;
46731;SDS011;32477;51.474;5.696;2023-04-23T09:13:04;11.32;;;2.03;;
46731;SDS011;32477;51.474;5.696;2023-04-23T09:15:29;8.90;;;2.05;;
46731;SDS011;32477;51.474;5.696;2023-04-23T09:17:55;8.70;;;2.22;;
46731;SDS011;32477;51.474;5.696;2023-04-23T09:20:22;4.45;;;1.40;;
46731;SDS011;32477;51.474;5.696;2023-04-23T09:22:48;7.30;;;1.77;;
46731;SDS011;32477;51.474;5.696;2023-04-23T09:25:17;12.27;;;2.15;;
46731;SDS011;32477;51.474;5.696;2023-04-23T09:27:45;10.68;;;2.10;;
46731;SDS011;32477;51.474;5.696;2023-04-23T09:30:12;5.90;;;2.13;;
46731;SDS011;32477;51.474;5.696;2023-04-23T09:32:39;5.20;;;1.70;;
46731;SDS011;32477;51.474;5.696;2023-04-23T09:35:11;9.43;;;2.08;;
46731;SDS011;32477;51.474;5.696;2023-04-23T09:37:42;8.52;;;2.25;;
46731;SDS011;32477;51.474;5.696;2023-04-23T09:40:12;9.90;;;1.90;;
46731;SDS011;32477;51.474;5.696;2023-04-23T09:42:39;8.90;;;2.25;;
46731;SDS011;32477;51.474;5.696;2023-04-23T09:45:05;5.88;;;1.77;;
46731;SDS011;32477;51.474;5.696;2023-04-23T09:47:54;4.38;;;1.58;;
46731;SDS011;32477;51.474;5.696;2023-04-23T09:50:20;10.63;;;2.25;;
46731;SDS011;32477;51.474;5.696;2023-04-23T09:53:03;7.43;;;1.70;;
46731;SDS011;32477;51.474;5.696;2023-04-23T09:55:34;6.63;;;1.73;;
46731;SDS011;32477;51.474;5.696;2023-04-23T09:58:04;7.28;;;1.50;;
46731;SDS011;32477;51.474;5.696;2023-04-23T10:00:34;5.45;;;1.67;;
46731;SDS011;32477;51.474;5.696;2023-04-23T10:03:01;8.93;;;2.40;;
46731;SDS011;32477;51.474;5.696;2023-04-23T10:05:28;5.75;;;1.20;;
46731;SDS011;32477;51.474;5.696;2023-04-23T10:07:54;8.75;;;1.77;;
46731;SDS011;32477;51.474;5.696;2023-04-23T10:10:23;8.45;;;1.85;;
46731;SDS011;32477;51.474;5.696;2023-04-23T10:12:50;7.97;;;1.42;;
46731;SDS011;32477;51.474;5.696;2023-04-23T10:15:22;3.50;;;1.38;;
46731;SDS011;32477;51.474;5.696;2023-04-23T10:17:50;3.22;;;1.45;;
46731;SDS011;32477;51.474;5.696;2023-04-23T10:20:16;3.33;;;1.20;;
46731;SDS011;32477;51.474;5.696;2023-04-23T10:22:43;8.02;;;1.70;;
46731;SDS011;32477;51.474;5.696;2023-04-23T10:25:10;4.65;;;1.63;;
46731;SDS011;32477;51.474;5.696;2023-04-23T10:27:38;7.20;;;1.92;;
46731;SDS011;32477;51.474;5.696;2023-04-23T10:30:06;11.02;;;2.50;;
46731;SDS011;32477;51.474;5.696;2023-04-23T10:32:33;7.28;;;1.73;;
46731;SDS011;32477;51.474;5.696;2023-04-23T10:34:59;7.30;;;1.50;;
46731;SDS011;32477;51.474;5.696;2023-04-23T10:37:25;3.55;;;1.35;;
46731;SDS011;32477;51.474;5.696;2023-04-23T10:39:55;8.23;;;1.80;;
46731;SDS011;32477;51.474;5.696;2023-04-23T10:42:25;8.60;;;1.85;;
46731;SDS011;32477;51.474;5.696;2023-04-23T10:44:54;10.52;;;2.25;;
46731;SDS011;32477;51.474;5.696;2023-04-23T10:47:21;8.00;;;2.08;;
46731;SDS011;32477;51.474;5.696;2023-04-23T10:49:47;4.95;;;1.80;;
46731;SDS011;32477;51.474;5.696;2023-04-23T10:52:14;6.97;;;1.33;;
46731;SDS011;32477;51.474;5.696;2023-04-23T10:54:41;4.07;;;1.88;;
46731;SDS011;32477;51.474;5.696;2023-04-23T10:57:08;7.43;;;2.30;;
46731;SDS011;32477;51.474;5.696;2023-04-23T10:59:39;7.38;;;2.10;;
46731;SDS011;32477;51.474;5.696;2023-04-23T11:02:15;5.65;;;1.80;;
46731;SDS011;32477;51.474;5.696;2023-04-23T11:04:42;8.68;;;2.25;;
46731;SDS011;32477;51.474;5.696;2023-04-23T11:07:10;5.95;;;1.67;;
46731;SDS011;32477;51.474;5.696;2023-04-23T11:09:37;4.88;;;1.40;;
46731;SDS011;32477;51.474;5.696;2023-04-23T11:12:11;5.55;;;1.52;;
46731;SDS011;32477;51.474;5.696;2023-04-23T11:14:46;4.65;;;1.75;;
46731;SDS011;32477;51.474;5.696;2023-04-23T11:17:14;7.53;;;1.52;;
46731;SDS011;32477;51.474;5.696;2023-04-23T11:22:34;5.15;;;1.38;;
46731;SDS011;32477;51.474;5.696;2023-04-23T11:25:02;7.30;;;2.08;;
46731;SDS011;32477;51.474;5.696;2023-04-23T11:27:29;5.75;;;1.33;;
46731;SDS011;32477;51.474;5.696;2023-04-23T11:29:56;3.80;;;1.45;;
46731;SDS011;32477;51.474;5.696;2023-04-23T11:32:22;8.15;;;1.50;;
46731;SDS011;32477;51.474;5.696;2023-04-23T11:34:48;9.07;;;1.60;;
46731;SDS011;32477;51.474;5.696;2023-04-23T11:37:15;3.00;;;1.25;;
46731;SDS011;32477;51.474;5.696;2023-04-23T11:39:42;3.17;;;1.48;;
46731;SDS011;32477;51.474;5.696;2023-04-23T11:42:12;4.13;;;1.25;;
46731;SDS011;32477;51.474;5.696;2023-04-23T11:44:42;6.03;;;1.50;;
46731;SDS011;32477;51.474;5.696;2023-04-23T11:47:13;2.58;;;1.35;;
46731;SDS011;32477;51.474;5.696;2023-04-23T11:49:41;2.60;;;1.13;;
46731;SDS011;32477;51.474;5.696;2023-04-23T11:52:08;4.28;;;1.20;;
46731;SDS011;32477;51.474;5.696;2023-04-23T11:54:34;11.10;;;1.75;;
46731;SDS011;32477;51.474;5.696;2023-04-23T11:57:00;2.72;;;1.17;;
46731;SDS011;32477;51.474;5.696;2023-04-23T11:59:28;3.15;;;1.20;;
46731;SDS011;32477;51.474;5.696;2023-04-23T12:01:58;4.13;;;1.50;;
46731;SDS011;32477;51.474;5.696;2023-04-23T12:04:27;5.18;;;1.52;;
46731;SDS011;32477;51.474;5.696;2023-04-23T12:06:55;6.00;;;1.58;;
46731;SDS011;32477;51.474;5.696;2023-04-23T12:09:26;6.13;;;1.30;;
46731;SDS011;32477;51.474;5.696;2023-04-23T12:11:53;3.67;;;1.13;;
46731;SDS011;32477;51.474;5.696;2023-04-23T12:14:24;5.78;;;1.55;;
46731;SDS011;32477;51.474;5.696;2023-04-23T12:16:55;5.05;;;1.45;;
46731;SDS011;32477;51.474;5.696;2023-04-23T12:19:26;4.25;;;1.45;;
46731;SDS011;32477;51.474;5.696;2023-04-23T12:21:58;4.53;;;1.30;;
46731;SDS011;32477;51.474;5.696;2023-04-23T12:24:26;4.65;;;1.60;;
46731;SDS011;32477;51.474;5.696;2023-04-23T12:27:12;7.35;;;1.52;;
46731;SDS011;32477;51.474;5.696;2023-04-23T12:29:39;4.35;;;1.42;;
46731;SDS011;32477;51.474;5.696;2023-04-23T12:32:08;4.18;;;1.40;;
46731;SDS011;32477;51.474;5.696;2023-04-23T12:34:35;4.43;;;1.40;;
46731;SDS011;32477;51.474;5.696;2023-04-23T12:37:04;5.07;;;1.42;;
46731;SDS011;32477;51.474;5.696;2023-04-23T12:39:31;6.20;;;1.60;;
46731;SDS011;32477;51.474;5.696;2023-04-23T12:44:26;5.15;;;1.42;;
46731;SDS011;32477;51.474;5.696;2023-04-23T12:46:57;5.40;;;1.90;;
46731;SDS011;32477;51.474;5.696;2023-04-23T12:49:25;4.35;;;1.40;;
46731;SDS011;32477;51.474;5.696;2023-04-23T12:51:51;3.22;;;1.83;;
46731;SDS011;32477;51.474;5.696;2023-04-23T12:54:21;6.57;;;1.80;;
46731;SDS011;32477;51.474;5.696;2023-04-23T12:56:48;7.30;;;1.45;;
46731;SDS011;32477;51.474;5.696;2023-04-23T12:59:14;4.68;;;1.30;;
46731;SDS011;32477;51.474;5.696;2023-04-23T13:01:39;3.17;;;1.30;;
46731;SDS011;32477;51.474;5.696;2023-04-23T13:04:05;5.40;;;1.25;;
46731;SDS011;32477;51.474;5.696;2023-04-23T13:06:31;9.80;;;1.33;;
46731;SDS011;32477;51.474;5.696;2023-04-23T13:08:57;4.53;;;1.30;;
46731;SDS011;32477;51.474;5.696;2023-04-23T13:11:26;9.27;;;1.50;;
46731;SDS011;32477;51.474;5.696;2023-04-23T13:13:51;7.45;;;1.48;;
46731;SDS011;32477;51.474;5.696;2023-04-23T13:16:17;8.88;;;1.52;;
46731;SDS011;32477;51.474;5.696;2023-04-23T13:18:43;5.20;;;1.50;;
46731;SDS011;32477;51.474;5.696;2023-04-23T13:21:08;5.97;;;1.50;;
46731;SDS011;32477;51.474;5.696;2023-04-23T13:23:34;7.80;;;1.65;;
46731;SDS011;32477;51.474;5.696;2023-04-23T13:26:02;6.88;;;1.38;;
46731;SDS011;32477;51.474;5.696;2023-04-23T13:28:28;3.63;;;1.02;;
46731;SDS011;32477;51.474;5.696;2023-04-23T13:30:53;3.08;;;0.85;;
46731;SDS011;32477;51.474;5.696;2023-04-23T13:33:19;4.00;;;1.30;;
46731;SDS011;32477;51.474;5.696;2023-04-23T13:35:45;6.50;;;1.48;;
46731;SDS011;32477;51.474;5.696;2023-04-23T13:38:11;6.07;;;1.40;;
46731;SDS011;32477;51.474;5.696;2023-04-23T13:40:37;10.20;;;2.67;;
46731;SDS011;32477;51.474;5.696;2023-04-23T13:43:03;5.15;;;0.85;;
46731;SDS011;32477;51.474;5.696;2023-04-23T13:45:29;3.42;;;0.90;;
46731;SDS011;32477;51.474;5.696;2023-04-23T13:47:54;4.18;;;1.00;;
46731;SDS011;32477;51.474;5.696;2023-04-23T13:50:20;4.90;;;1.30;;
46731;SDS011;32477;51.474;5.696;2023-04-23T13:52:46;2.72;;;0.82;;
46731;SDS011;32477;51.474;5.696;2023-04-23T13:55:12;3.20;;;0.80;;
46731;SDS011;32477;51.474;5.696;2023-04-23T13:57:37;3.90;;;0.90;;
46731;SDS011;32477;51.474;5.696;2023-04-23T14:00:04;2.35;;;0.73;;
46731;SDS011;32477;51.474;5.696;2023-04-23T14:02:30;9.05;;;0.90;;
46731;SDS011;32477;51.474;5.696;2023-04-23T14:04:56;3.88;;;1.05;;
46731;SDS011;32477;51.474;5.696;2023-04-23T14:07:22;3.58;;;1.10;;
46731;SDS011;32477;51.474;5.696;2023-04-23T14:09:48;4.40;;;0.88;;
46731;SDS011;32477;51.474;5.696;2023-04-23T14:12:16;3.33;;;0.90;;
46731;SDS011;32477;51.474;5.696;2023-04-23T14:14:43;7.55;;;1.05;;
46731;SDS011;32477;51.474;5.696;2023-04-23T14:17:08;2.28;;;0.98;;
46731;SDS011;32477;51.474;5.696;2023-04-23T14:19:34;5.75;;;0.95;;
46731;SDS011;32477;51.474;5.696;2023-04-23T14:22:02;5.70;;;0.90;;
46731;SDS011;32477;51.474;5.696;2023-04-23T14:24:49;2.00;;;0.80;;
46731;SDS011;32477;51.474;5.696;2023-04-23T14:27:15;2.15;;;0.80;;
46731;SDS011;32477;51.474;5.696;2023-04-23T14:32:21;2.72;;;0.70;;
46731;SDS011;32477;51.474;5.696;2023-04-23T14:34:46;1.70;;;0.60;;
46731;SDS011;32477;51.474;5.696;2023-04-23T14:37:12;2.92;;;0.93;;
46731;SDS011;32477;51.474;5.696;2023-04-23T14:39:38;3.13;;;1.00;;